createdAt,value
2016-11-11T00:00:15.519Z,46.17
2016-11-11T00:01:24.818Z,45.88
2016-11-11T00:02:33.509Z,46.07
2016-11-11T00:03:42.229Z,45.98
2016-11-11T00:04:51.545Z,45.98
2016-11-11T00:06:00.234Z,46.26
2016-11-11T00:07:09.248Z,46.17
2016-11-11T00:08:18.864Z,45.98
2016-11-11T00:09:28.154Z,45.5
2016-11-11T00:10:37.172Z,45.78
2016-11-11T00:11:46.501Z,45.88
2016-11-11T00:12:55.500Z,45.4
2016-11-11T00:14:04.529Z,45.4
2016-11-11T00:15:13.558Z,45.78
2016-11-11T00:16:22.872Z,45.59
2016-11-11T00:17:31.552Z,45.21
2016-11-11T00:18:40.572Z,45.68
2016-11-11T00:19:49.250Z,45.59
2016-11-11T00:20:58.240Z,45.5
2016-11-11T00:22:06.939Z,45.21
2016-11-11T00:23:15.931Z,45.59
2016-11-11T00:24:25.262Z,45.5
2016-11-11T00:25:34.869Z,45.88
2016-11-11T00:26:44.175Z,45.78
2016-11-11T00:27:53.474Z,45.3
2016-11-11T00:29:02.778Z,45.11
2016-11-11T00:30:12.089Z,45.3
2016-11-11T00:31:20.795Z,45.4
2016-11-11T00:32:30.098Z,45.5
2016-11-11T00:33:38.946Z,45.4
2016-11-11T00:34:47.632Z,45.4
2016-11-11T00:35:56.971Z,45.68
2016-11-11T00:37:06.266Z,45.59
2016-11-11T00:38:15.270Z,45.5
2016-11-11T00:39:24.982Z,45.3
2016-11-11T00:40:33.667Z,44.82
2016-11-11T00:41:42.352Z,45.21
2016-11-11T00:42:51.660Z,45.21
2016-11-11T00:44:00.656Z,45.21
2016-11-11T00:45:09.657Z,45.01
2016-11-11T00:46:18.336Z,45.11
2016-11-11T00:47:27.026Z,45.68
2016-11-11T00:48:36.021Z,45.78
2016-11-11T00:49:44.707Z,45.21
2016-11-11T00:50:53.854Z,45.78
2016-11-11T00:52:03.461Z,45.4
2016-11-11T00:53:12.474Z,45.01
2016-11-11T00:54:21.158Z,45.01
2016-11-11T00:55:30.461Z,45.11
2016-11-11T00:56:39.147Z,45.11
2016-11-11T00:57:47.845Z,45.11
2016-11-11T00:58:56.846Z,45.01
2016-11-11T01:00:05.531Z,45.11
2016-11-11T01:01:14.534Z,45.5
2016-11-11T01:02:23.847Z,45.11
2016-11-11T01:03:33.140Z,45.21
2016-11-11T01:04:42.139Z,45.4
2016-11-11T01:05:50.838Z,45.11
2016-11-11T01:07:00.147Z,45.4
2016-11-11T01:08:09.143Z,45.5
2016-11-11T01:09:19.061Z,45.21
2016-11-11T01:10:28.058Z,45.01
2016-11-11T01:11:37.684Z,44.92
2016-11-11T01:12:46.371Z,45.4
2016-11-11T01:13:55.822Z,45.01
2016-11-11T01:15:04.530Z,44.92
2016-11-11T01:16:14.138Z,44.82
2016-11-11T01:17:23.748Z,44.92
2016-11-11T01:18:32.438Z,44.63
2016-11-11T01:19:41.580Z,44.63
2016-11-11T01:20:50.266Z,44.54
2016-11-11T01:21:59.613Z,44.73
2016-11-11T01:23:08.904Z,44.73
2016-11-11T01:24:17.899Z,44.54
2016-11-11T01:25:26.728Z,44.54
2016-11-11T01:26:35.715Z,44.82
2016-11-11T01:27:44.720Z,44.82
2016-11-11T01:31:27.790Z,44.44
2016-11-11T01:32:38.928Z,44.54
2016-11-11T01:33:48.231Z,44.44
2016-11-11T01:34:56.922Z,44.54
2016-11-11T01:36:05.621Z,44.24
2016-11-11T01:37:14.413Z,44.82
2016-11-11T01:38:23.723Z,44.92
2016-11-11T01:39:32.410Z,44.73
2016-11-11T01:40:41.406Z,44.63
2016-11-11T01:41:50.416Z,44.54
2016-11-11T01:42:59.723Z,44.44
2016-11-11T01:44:09.020Z,44.24
2016-11-11T01:45:17.705Z,44.44
2016-11-11T01:46:26.702Z,44.34
2016-11-11T01:47:36.308Z,44.44
2016-11-11T01:48:45.317Z,44.15
2016-11-11T01:49:54.314Z,44.15
2016-11-11T01:51:02.998Z,44.44
2016-11-11T01:52:11.688Z,44.44
2016-11-11T01:53:20.684Z,44.54
2016-11-11T01:54:29.365Z,44.54
2016-11-11T01:55:38.359Z,44.24
2016-11-11T01:56:47.347Z,44.34
2016-11-11T01:57:56.026Z,44.15
2016-11-11T01:59:05.024Z,44.34
2016-11-11T02:00:13.709Z,44.44
2016-11-11T02:01:22.704Z,44.73
2016-11-11T02:02:31.392Z,44.73
2016-11-11T02:03:40.694Z,44.73
2016-11-11T02:04:49.680Z,44.63
2016-11-11T02:05:58.356Z,44.34
2016-11-11T02:07:07.655Z,44.54
2016-11-11T02:08:16.656Z,44.54
2016-11-11T02:09:26.330Z,44.63
2016-11-11T02:10:35.311Z,44.63
2016-11-11T02:11:44.748Z,44.34
2016-11-11T02:12:53.741Z,44.44
2016-11-11T02:14:02.434Z,44.54
2016-11-11T02:15:11.443Z,44.73
2016-11-11T02:16:20.192Z,44.34
2016-11-11T02:17:29.521Z,44.73
2016-11-11T02:18:38.519Z,44.63
2016-11-11T02:19:47.833Z,44.34
2016-11-11T02:20:56.522Z,44.63
2016-11-11T02:22:05.213Z,44.15
2016-11-11T02:23:14.362Z,43.96
2016-11-11T02:24:23.357Z,44.06
2016-11-11T02:25:32.366Z,44.54
2016-11-11T02:26:41.366Z,44.06
2016-11-11T02:27:50.067Z,44.44
2016-11-11T02:28:59.684Z,44.63
2016-11-11T02:30:08.684Z,44.63
2016-11-11T02:31:17.397Z,44.15
2016-11-11T02:32:26.393Z,44.06
2016-11-11T02:33:35.392Z,44.06
2016-11-11T02:34:44.378Z,43.96
2016-11-11T02:35:53.670Z,44.15
2016-11-11T02:37:02.655Z,44.15
2016-11-11T02:38:11.672Z,44.44
2016-11-11T02:39:20.970Z,44.73
2016-11-11T02:40:30.565Z,43.96
2016-11-11T02:41:40.168Z,44.63
2016-11-11T02:42:49.163Z,44.61
2016-11-11T02:43:58.168Z,44.61
2016-11-11T02:45:06.842Z,44.13
2016-11-11T02:46:16.461Z,44.03
2016-11-11T02:47:25.165Z,43.96
2016-11-11T02:48:33.885Z,44.24
2016-11-11T02:49:42.874Z,44.06
2016-11-11T02:50:51.861Z,44.06
2016-11-11T02:52:00.545Z,43.94
2016-11-11T02:53:10.157Z,43.87
2016-11-11T02:54:19.465Z,43.84
2016-11-11T02:55:28.155Z,43.96
2016-11-11T02:56:36.833Z,44.03
2016-11-11T02:57:45.515Z,43.94
2016-11-11T02:58:54.209Z,43.94
2016-11-11T03:00:03.211Z,44.03
2016-11-11T03:01:12.221Z,43.94
2016-11-11T03:02:21.211Z,43.96
2016-11-11T03:03:29.899Z,44.06
2016-11-11T03:04:38.578Z,43.96
2016-11-11T03:05:47.877Z,43.94
2016-11-11T03:06:57.175Z,43.87
2016-11-11T03:08:06.162Z,44.15
2016-11-11T03:09:15.279Z,44.32
2016-11-11T03:10:24.270Z,43.94
2016-11-11T03:11:32.960Z,43.94
2016-11-11T03:12:41.672Z,43.96
2016-11-11T03:13:50.973Z,44.15
2016-11-11T03:14:59.809Z,44.32
2016-11-11T03:16:08.799Z,43.96
2016-11-11T03:17:17.811Z,44.13
2016-11-11T03:18:26.505Z,43.94
2016-11-11T03:19:35.500Z,43.87
2016-11-11T03:20:44.494Z,44.23
2016-11-11T03:21:53.518Z,44.13
2016-11-11T03:23:02.545Z,43.94
2016-11-11T03:24:11.243Z,43.96
2016-11-11T03:25:20.243Z,44.13
2016-11-11T03:26:28.931Z,43.96
2016-11-11T03:27:37.616Z,43.87
2016-11-11T03:28:46.331Z,43.96
2016-11-11T03:29:55.945Z,43.87
2016-11-11T03:31:04.940Z,43.87
2016-11-11T03:32:13.727Z,43.94
2016-11-11T03:33:22.421Z,44.03
2016-11-11T03:34:31.111Z,44.06
2016-11-11T03:35:40.517Z,43.94
2016-11-11T03:36:49.207Z,43.94
2016-11-11T03:37:58.212Z,43.77
2016-11-11T03:39:07.200Z,43.84
2016-11-11T03:40:16.801Z,43.96
2016-11-11T03:41:25.491Z,43.94
2016-11-11T03:42:34.494Z,43.96
2016-11-11T03:43:43.499Z,43.94
2016-11-11T03:44:52.495Z,44.03
2016-11-11T03:46:01.190Z,44.15
2016-11-11T03:47:10.183Z,43.96
2016-11-11T03:48:19.516Z,44.13
2016-11-11T03:49:28.512Z,44.03
2016-11-11T03:50:37.815Z,43.94
2016-11-11T03:51:46.812Z,44.06
2016-11-11T03:52:55.808Z,43.84
2016-11-11T03:54:04.495Z,44.15
2016-11-11T03:55:13.523Z,44.15
2016-11-11T03:56:22.889Z,44.15
2016-11-11T03:57:32.798Z,44.03
2016-11-11T03:58:41.823Z,43.96
2016-11-11T03:59:50.509Z,44.15
2016-11-11T04:00:59.820Z,43.77
2016-11-11T04:02:09.124Z,43.84
2016-11-11T04:03:18.113Z,43.96
2016-11-11T04:04:27.105Z,43.74
2016-11-11T04:05:36.097Z,43.96
2016-11-11T04:06:44.929Z,43.96
2016-11-11T04:07:54.224Z,44.32
2016-11-11T04:09:03.531Z,43.94
2016-11-11T04:10:12.536Z,44.03
2016-11-11T04:11:21.857Z,44.15
2016-11-11T04:12:30.876Z,44.03
2016-11-11T04:13:39.877Z,44.15
2016-11-11T04:14:49.185Z,43.84
2016-11-11T04:15:58.201Z,43.87
2016-11-11T04:17:06.903Z,44.23
2016-11-11T04:18:16.354Z,44.03
2016-11-11T04:19:25.345Z,44.23
2016-11-11T04:20:34.038Z,44.03
2016-11-11T04:21:43.040Z,44.03
2016-11-11T04:22:52.338Z,44.23
2016-11-11T04:24:01.176Z,43.94
2016-11-11T04:25:10.179Z,44.03
2016-11-11T04:26:19.174Z,44.03
2016-11-11T04:27:28.483Z,43.94
2016-11-11T04:28:37.162Z,43.94
2016-11-11T04:29:45.863Z,44.03
2016-11-11T04:30:55.157Z,43.74
2016-11-11T04:32:04.808Z,44.13
2016-11-11T04:33:13.810Z,44.13
2016-11-11T04:34:22.499Z,44.03
2016-11-11T04:35:31.650Z,44.03
2016-11-11T04:36:40.939Z,44.03
2016-11-11T04:37:49.619Z,44.13
2016-11-11T04:38:58.605Z,44.03
2016-11-11T04:40:07.909Z,43.94
2016-11-11T04:41:16.609Z,43.94
2016-11-11T04:42:25.913Z,44.23
2016-11-11T04:43:35.218Z,44.23
2016-11-11T04:44:43.906Z,44.23
2016-11-11T04:45:52.589Z,44.13
2016-11-11T04:47:02.196Z,43.74
2016-11-11T04:48:10.882Z,44.03
2016-11-11T04:49:19.568Z,44.13
2016-11-11T04:50:28.550Z,43.94
2016-11-11T04:51:37.235Z,44.13
2016-11-11T04:52:46.575Z,44.03
2016-11-11T04:53:55.272Z,44.13
2016-11-11T04:55:04.574Z,44.03
2016-11-11T04:56:13.254Z,44.13
2016-11-11T04:57:21.942Z,43.94
2016-11-11T04:58:30.808Z,44.03
2016-11-11T04:59:39.809Z,44.13
2016-11-11T05:00:49.117Z,43.94
2016-11-11T05:01:58.460Z,43.94
2016-11-11T05:03:07.157Z,43.74
2016-11-11T05:04:17.185Z,44.03
2016-11-11T05:05:26.177Z,43.84
2016-11-11T05:06:35.165Z,43.55
2016-11-11T05:07:44.470Z,44.13
2016-11-11T05:08:53.767Z,43.74
2016-11-11T05:10:02.556Z,43.74
2016-11-11T05:11:11.564Z,43.74
2016-11-11T05:12:20.551Z,44.13
2016-11-11T05:13:29.540Z,44.13
2016-11-11T05:14:38.226Z,43.65
2016-11-11T05:15:47.661Z,43.84
2016-11-11T05:16:56.395Z,44.13
2016-11-11T05:18:05.398Z,43.94
2016-11-11T05:19:14.093Z,44.03
2016-11-11T05:20:23.398Z,44.13
2016-11-11T05:21:32.999Z,44.23
2016-11-11T05:22:42.305Z,43.74
2016-11-11T05:23:51.296Z,44.13
2016-11-11T05:25:00.612Z,43.55
2016-11-11T05:26:09.310Z,43.84
2016-11-11T05:27:18.301Z,44.23
2016-11-11T05:28:27.284Z,43.94
2016-11-11T05:29:36.273Z,43.94
2016-11-11T05:30:45.574Z,43.94
2016-11-11T05:31:54.562Z,43.84
2016-11-11T05:33:03.859Z,43.84
2016-11-11T05:34:13.175Z,43.74
2016-11-11T05:35:21.856Z,43.65
2016-11-11T05:36:30.551Z,43.84
2016-11-11T05:37:39.234Z,43.65
2016-11-11T05:38:48.227Z,43.84
2016-11-11T05:39:56.908Z,43.94
2016-11-11T05:41:06.202Z,44.03
2016-11-11T05:42:14.886Z,44.13
2016-11-11T05:43:23.874Z,44.03
2016-11-11T05:44:32.553Z,43.84
2016-11-11T05:45:42.167Z,44.23
2016-11-11T05:46:51.179Z,43.94
2016-11-11T05:47:59.881Z,43.94
2016-11-11T05:49:08.871Z,43.94
2016-11-11T05:50:17.572Z,43.84
2016-11-11T05:51:26.599Z,43.74
2016-11-11T05:52:35.287Z,44.03
2016-11-11T05:53:44.594Z,43.94
2016-11-11T05:54:53.600Z,43.84
2016-11-11T05:56:02.375Z,43.94
2016-11-11T05:57:12.295Z,44.03
2016-11-11T05:58:21.293Z,44.42
2016-11-11T05:59:29.972Z,44.61
2016-11-11T06:00:38.958Z,44.51
2016-11-11T06:01:48.572Z,44.61
2016-11-11T06:02:57.735Z,44.42
2016-11-11T06:04:06.841Z,44.23
2016-11-11T06:05:16.704Z,43.94
2016-11-11T06:06:26.199Z,43.94
2016-11-11T06:07:35.663Z,44.23
2016-11-11T06:08:44.828Z,44.03
2016-11-11T06:09:54.320Z,44.32
2016-11-11T06:11:04.219Z,44.61
2016-11-11T06:12:14.100Z,44.61
2016-11-11T06:13:23.318Z,44.32
2016-11-11T06:14:32.278Z,44.32
2016-11-11T06:15:41.554Z,44.51
2016-11-11T06:16:51.449Z,44.32
2016-11-11T06:18:00.994Z,44.32
2016-11-11T06:19:10.539Z,44.13
2016-11-11T06:20:19.679Z,44.32
2016-11-11T06:21:29.721Z,44.51
2016-11-11T06:22:38.763Z,44.32
2016-11-11T06:23:47.934Z,44.32
2016-11-11T06:24:57.407Z,44.32
2016-11-11T06:26:06.671Z,44.32
2016-11-11T06:27:16.066Z,44.51
2016-11-11T06:28:25.224Z,44.03
2016-11-11T06:29:34.330Z,44.06
2016-11-11T06:30:43.831Z,43.77
2016-11-11T06:31:53.145Z,43.96
2016-11-11T06:33:02.429Z,43.48
2016-11-11T06:34:11.680Z,43.29
2016-11-11T06:35:21.031Z,43.31
2016-11-11T06:36:30.039Z,43.5
2016-11-11T06:37:39.795Z,43.12
2016-11-11T06:38:48.964Z,42.83
2016-11-11T06:39:57.853Z,42.56
2016-11-11T06:41:07.360Z,42.66
2016-11-11T06:42:17.574Z,42.56
2016-11-11T06:43:27.535Z,42.47
2016-11-11T06:44:36.815Z,42.27
2016-11-11T06:45:46.375Z,42.37
2016-11-11T06:46:55.763Z,42.08
2016-11-11T06:48:05.894Z,42.18
2016-11-11T06:49:15.869Z,42.08
2016-11-11T06:50:24.855Z,42.37
2016-11-11T06:51:33.853Z,42.37
2016-11-11T06:52:42.680Z,42
2016-11-11T06:53:52.040Z,41.99
2016-11-11T06:55:01.609Z,41.82
2016-11-11T06:56:11.515Z,41.91
2016-11-11T06:57:21.474Z,41.89
2016-11-11T06:58:30.643Z,42
2016-11-11T06:59:41.193Z,41.82
2016-11-11T07:00:50.190Z,41.82
2016-11-11T07:01:59.224Z,41.91
2016-11-11T07:03:09.133Z,41.82
2016-11-11T07:04:17.828Z,41.91
2016-11-11T07:05:26.513Z,41.91
2016-11-11T07:06:35.507Z,41.91
2016-11-11T07:07:44.803Z,41.91
2016-11-11T07:08:53.485Z,41.53
2016-11-11T07:10:02.174Z,41.72
2016-11-11T07:11:11.169Z,41.62
2016-11-11T07:12:20.163Z,41.72
2016-11-11T07:13:30.080Z,42.22
2016-11-11T07:14:38.764Z,42.41
2016-11-11T07:15:48.065Z,42.22
2016-11-11T07:16:57.483Z,42.32
2016-11-11T07:18:06.497Z,42.22
2016-11-11T07:19:15.180Z,42.22
2016-11-11T07:20:23.872Z,42.5
2016-11-11T07:21:32.653Z,42.6
2016-11-11T07:22:41.994Z,42.7
2016-11-11T07:23:50.683Z,42.7
2016-11-11T07:24:59.385Z,43.08
2016-11-11T07:26:08.401Z,43.37
2016-11-11T07:27:17.403Z,43.37
2016-11-11T07:28:26.394Z,43.85
2016-11-11T07:29:35.401Z,43.66
2016-11-11T07:30:44.404Z,43.66
2016-11-11T07:31:53.099Z,44.14
2016-11-11T07:33:02.437Z,43.95
2016-11-11T07:34:11.536Z,44.05
2016-11-11T07:35:20.273Z,44.34
2016-11-11T07:36:29.569Z,44.34
2016-11-11T07:37:38.588Z,44.05
2016-11-11T07:38:47.594Z,44.72
2016-11-11T07:39:56.899Z,44.43
2016-11-11T07:41:05.592Z,44.43
2016-11-11T07:42:15.506Z,44.72
2016-11-11T07:43:24.821Z,50.1
2016-11-11T07:44:33.814Z,45.51
2016-11-11T07:45:42.795Z,43.41
2016-11-11T07:46:52.101Z,43.4
2016-11-11T07:48:01.469Z,43.97
2016-11-11T07:49:10.480Z,43.66
2016-11-11T07:50:19.771Z,43.37
2016-11-11T07:51:28.769Z,43.57
2016-11-11T07:52:38.077Z,43.08
2016-11-11T07:53:47.068Z,43.08
2016-11-11T07:54:56.380Z,42.7
2016-11-11T07:56:05.369Z,42.7
2016-11-11T07:57:14.673Z,42.6
2016-11-11T07:58:23.672Z,42.5
2016-11-11T07:59:32.971Z,42.6
2016-11-11T08:00:42.282Z,42.7
2016-11-11T08:01:50.973Z,42.22
2016-11-11T08:02:59.661Z,42.22
2016-11-11T08:04:08.358Z,42.41
2016-11-11T08:05:17.351Z,42.3
2016-11-11T08:06:26.966Z,42.3
2016-11-11T08:07:35.962Z,42.68
2016-11-11T08:08:45.572Z,42.87
2016-11-11T08:09:54.880Z,42.68
2016-11-11T08:11:03.881Z,43.93
2016-11-11T08:12:12.873Z,43.93
2016-11-11T08:13:21.856Z,43.93
2016-11-11T08:14:31.167Z,43.84
2016-11-11T08:15:39.862Z,43.74
2016-11-11T08:16:49.171Z,43.93
2016-11-11T08:17:58.178Z,43.84
2016-11-11T08:19:07.189Z,43.84
2016-11-11T08:20:15.986Z,43.64
2016-11-11T08:21:24.705Z,43.84
2016-11-11T08:22:33.405Z,43.74
2016-11-11T08:23:42.091Z,43.74
2016-11-11T08:24:51.105Z,43.93
2016-11-11T08:26:00.109Z,44.02
2016-11-11T08:27:09.125Z,44.02
2016-11-11T08:28:17.826Z,43.64
2016-11-11T08:29:26.531Z,43.93
2016-11-11T08:30:35.224Z,43.54
2016-11-11T08:31:44.313Z,43.93
2016-11-11T08:32:53.627Z,44.12
2016-11-11T08:34:02.647Z,44.29
2016-11-11T08:35:11.633Z,43.74
2016-11-11T08:36:20.328Z,44.02
2016-11-11T08:37:29.622Z,44.58
2016-11-11T08:38:38.642Z,44.58
2016-11-11T08:39:47.339Z,44.48
2016-11-11T08:40:56.047Z,44.38
2016-11-11T08:42:05.047Z,44.2
2016-11-11T08:43:14.154Z,44.38
2016-11-11T08:44:23.146Z,44.48
2016-11-11T08:45:32.469Z,44.77
2016-11-11T08:46:41.783Z,44.58
2016-11-11T08:47:51.122Z,44.77
2016-11-11T08:49:00.116Z,44.87
2016-11-11T08:50:08.841Z,44.58
2016-11-11T08:51:17.838Z,44.77
2016-11-11T08:52:26.549Z,44.77
2016-11-11T08:53:35.879Z,44.77
2016-11-11T08:54:45.246Z,44.46
2016-11-11T08:55:54.260Z,44.77
2016-11-11T08:57:03.277Z,44.58
2016-11-11T08:58:12.300Z,45.15
2016-11-11T08:59:21.056Z,44.87
2016-11-11T09:00:30.784Z,45.06
2016-11-11T09:01:40.084Z,45.04
2016-11-11T09:02:49.085Z,45.06
2016-11-11T09:03:57.776Z,45.15
2016-11-11T09:05:06.775Z,44.94
2016-11-11T09:06:15.890Z,44.87
2016-11-11T09:07:25.204Z,44.87
2016-11-11T09:08:33.951Z,45.42
2016-11-11T09:09:42.981Z,44.94
2016-11-11T09:10:52.599Z,45.32
2016-11-11T09:12:02.866Z,45.23
2016-11-11T09:13:12.168Z,45.04
2016-11-11T09:14:20.856Z,45.23
2016-11-11T09:15:29.547Z,45.14
2016-11-11T09:16:38.864Z,45.32
2016-11-11T09:17:47.897Z,45.61
2016-11-11T09:18:57.202Z,45.42
2016-11-11T09:20:06.508Z,45.32
2016-11-11T09:21:15.510Z,45.42
2016-11-11T09:22:25.138Z,45.32
2016-11-11T09:23:33.930Z,45.52
2016-11-11T09:24:42.930Z,45.9
2016-11-11T09:25:52.539Z,45.42
2016-11-11T09:27:01.546Z,45.42
2016-11-11T09:28:10.605Z,45.32
2016-11-11T09:29:19.606Z,45.61
2016-11-11T09:30:28.616Z,45.71
2016-11-11T09:31:37.633Z,45.61
2016-11-11T09:32:46.336Z,45.9
2016-11-11T09:33:55.034Z,45.32
2016-11-11T09:35:04.662Z,45.71
2016-11-11T09:36:14.594Z,45.42
2016-11-11T09:37:23.285Z,45.9
2016-11-11T09:43:37.039Z,45.42
2016-11-11T09:47:18.713Z,45.71
2016-11-11T09:48:28.033Z,45.52
2016-11-11T09:49:37.128Z,45.52
2016-11-11T09:50:45.862Z,45.32
2016-11-11T09:51:54.563Z,45.52
2016-11-11T09:53:03.571Z,45.9
2016-11-11T09:54:12.585Z,45.52
2016-11-11T09:55:21.698Z,45.9
2016-11-11T09:56:31.308Z,46.07
2016-11-11T09:57:40.316Z,46.19
2016-11-11T09:58:49.321Z,45.98
2016-11-11T09:59:58.320Z,46.38
2016-11-11T10:01:07.975Z,45.61
2016-11-11T10:02:17.601Z,45.9
2016-11-11T10:03:26.314Z,45.78
2016-11-11T10:04:35.024Z,46.28
2016-11-11T10:05:44.033Z,45.52
2016-11-11T10:06:53.061Z,45.81
2016-11-11T10:08:02.391Z,45.32
2016-11-11T10:09:11.701Z,45.71
2016-11-11T10:10:20.710Z,45.52
2016-11-11T10:11:29.420Z,45.32
2016-11-11T10:12:38.729Z,45.52
2016-11-11T10:13:47.745Z,45.68
2016-11-11T10:14:57.057Z,46
2016-11-11T10:16:05.758Z,45.81
2016-11-11T10:17:15.103Z,45.9
2016-11-11T10:18:24.252Z,45.52
2016-11-11T10:19:33.267Z,45.78
2016-11-11T10:20:42.285Z,45.98
2016-11-11T10:21:51.292Z,45.9
2016-11-11T10:23:00.628Z,45.4
2016-11-11T10:24:09.936Z,45.81
2016-11-11T10:25:18.665Z,45.98
2016-11-11T10:26:28.293Z,45.98
2016-11-11T10:27:37.020Z,45.3
2016-11-11T10:28:46.028Z,45.4
2016-11-11T10:29:55.048Z,45.68
2016-11-11T10:31:03.740Z,45.88
2016-11-11T10:32:13.049Z,45.68
2016-11-11T10:33:22.662Z,45.4
2016-11-11T10:34:31.365Z,45.88
2016-11-11T10:35:40.364Z,46.07
2016-11-11T10:36:49.683Z,45.68
2016-11-11T10:37:58.713Z,45.68
2016-11-11T10:39:08.363Z,46.17
2016-11-11T10:40:17.371Z,45.59
2016-11-11T10:41:26.495Z,46.17
2016-11-11T10:42:35.496Z,45.5
2016-11-11T10:43:45.107Z,45.4
2016-11-11T10:44:53.801Z,45.5
2016-11-11T10:46:02.805Z,46.36
2016-11-11T10:47:12.109Z,46.36
2016-11-11T10:48:20.808Z,45.98
2016-11-11T10:49:30.153Z,45.78
2016-11-11T10:50:38.848Z,45.88
2016-11-11T10:51:48.151Z,45.68
2016-11-11T10:52:57.188Z,45.98
2016-11-11T10:54:05.887Z,45.98
2016-11-11T10:55:14.900Z,45.59
2016-11-11T10:56:24.224Z,46.07
2016-11-11T10:57:32.924Z,45.88
2016-11-11T10:58:42.840Z,45.98
2016-11-11T10:59:51.828Z,45.68
2016-11-11T11:01:00.828Z,46.07
2016-11-11T11:02:09.533Z,45.98
2016-11-11T11:03:18.850Z,45.88
2016-11-11T11:04:27.596Z,46.07
2016-11-11T11:05:36.284Z,46.26
2016-11-11T11:06:45.598Z,45.98
2016-11-11T11:07:54.614Z,46.07
2016-11-11T11:09:03.934Z,45.78
2016-11-11T11:10:14.167Z,45.98
2016-11-11T11:11:23.171Z,46.26
2016-11-11T11:12:32.786Z,45.68
2016-11-11T11:13:42.401Z,45.88
2016-11-11T11:14:51.706Z,46.17
2016-11-11T11:16:01.357Z,45.88
2016-11-11T11:17:10.668Z,45.98
2016-11-11T11:18:19.359Z,45.78
2016-11-11T11:19:28.401Z,45.78
2016-11-11T11:20:37.427Z,45.3
2016-11-11T11:21:46.137Z,46.17
2016-11-11T11:22:55.136Z,45.98
2016-11-11T11:24:04.446Z,46.17
2016-11-11T11:25:13.142Z,46.17
2016-11-11T11:26:22.153Z,46.07
2016-11-11T11:27:31.466Z,46.17
2016-11-11T11:28:40.163Z,45.98
2016-11-11T11:29:49.784Z,46.36
2016-11-11T11:30:59.101Z,45.78
2016-11-11T11:32:07.797Z,45.98
2016-11-11T11:33:16.501Z,46.07
2016-11-11T11:34:25.532Z,45.98
2016-11-11T11:35:34.549Z,46.17
2016-11-11T11:36:43.249Z,45.98
2016-11-11T11:37:53.188Z,46.45
2016-11-11T11:39:02.802Z,45.88
2016-11-11T11:40:11.815Z,46.17
2016-11-11T11:41:20.504Z,45.98
2016-11-11T11:42:29.500Z,46.26
2016-11-11T11:43:38.802Z,45.3
2016-11-11T11:44:48.164Z,46.07
2016-11-11T11:45:57.184Z,46.17
2016-11-11T11:47:06.201Z,45.98
2016-11-11T11:48:15.520Z,45.98
2016-11-11T11:49:25.132Z,46.36
2016-11-11T11:50:34.539Z,46.07
2016-11-11T11:51:43.556Z,45.78
2016-11-11T11:52:52.555Z,45.88
2016-11-11T11:54:01.862Z,45.78
2016-11-11T11:55:10.865Z,46.26
2016-11-11T11:56:19.967Z,46.17
2016-11-11T11:57:28.970Z,46.07
2016-11-11T11:58:37.664Z,45.78
2016-11-11T11:59:46.671Z,46.17
2016-11-11T12:00:55.377Z,46.55
2016-11-11T12:02:05.016Z,46.26
2016-11-11T12:03:13.754Z,46.26
2016-11-11T12:04:22.489Z,46.07
2016-11-11T12:05:31.535Z,45.88
2016-11-11T12:06:40.562Z,45.5
2016-11-11T12:07:50.132Z,46.07
2016-11-11T12:08:59.157Z,46.07
2016-11-11T12:10:08.508Z,46.26
2016-11-11T12:11:17.826Z,45.98
2016-11-11T12:12:27.132Z,45.59
2016-11-11T12:13:36.275Z,45.68
2016-11-11T12:14:45.638Z,46.36
2016-11-11T12:15:54.370Z,45.59
2016-11-11T12:17:03.374Z,45.78
2016-11-11T12:18:12.808Z,46.17
2016-11-11T12:19:21.609Z,45.98
2016-11-11T12:20:30.316Z,45.59
2016-11-11T12:21:39.322Z,45.5
2016-11-11T12:22:48.635Z,45.59
2016-11-11T12:23:58.292Z,45.98
2016-11-11T12:25:07.005Z,45.68
2016-11-11T12:26:16.357Z,45.86
2016-11-11T12:27:25.712Z,45.4
2016-11-11T12:28:34.717Z,45.95
2016-11-11T12:29:43.755Z,45.95
2016-11-11T12:30:52.774Z,45.78
2016-11-11T12:32:01.822Z,45.4
2016-11-11T12:33:11.455Z,45.5
2016-11-11T12:34:20.460Z,45.76
2016-11-11T12:35:29.158Z,45.57
2016-11-11T12:36:38.257Z,45.68
2016-11-11T12:37:47.262Z,45.78
2016-11-11T12:38:55.954Z,45.68
2016-11-11T12:40:04.993Z,45.67
2016-11-11T12:41:14.011Z,45.88
2016-11-11T12:42:22.727Z,45.59
2016-11-11T12:43:31.736Z,46.05
2016-11-11T12:44:40.752Z,46.26
2016-11-11T12:45:50.066Z,45.76
2016-11-11T12:46:59.098Z,45.98
2016-11-11T12:48:08.507Z,45.68
2016-11-11T12:49:17.205Z,45.59
2016-11-11T12:50:26.202Z,45.57
2016-11-11T12:51:35.560Z,45.59
2016-11-11T12:52:44.278Z,45.47
2016-11-11T12:53:53.717Z,46.05
2016-11-11T12:55:02.477Z,46.43
2016-11-11T12:56:11.185Z,45.68
2016-11-11T12:57:20.192Z,45.86
2016-11-11T12:58:29.189Z,45.95
2016-11-11T12:59:38.821Z,45.76
2016-11-11T13:00:47.827Z,45.98
2016-11-11T13:01:56.520Z,46.55
2016-11-11T13:03:05.843Z,46.05
2016-11-11T13:04:14.855Z,46.26
2016-11-11T13:05:24.470Z,46.26
2016-11-11T13:06:33.793Z,46.24
2016-11-11T13:07:43.113Z,46.34
2016-11-11T13:08:51.808Z,45.67
2016-11-11T13:10:00.816Z,46.24
2016-11-11T13:11:09.504Z,45.95
2016-11-11T13:12:18.808Z,45.67
2016-11-11T13:13:27.516Z,46.05
2016-11-11T13:14:36.535Z,45.86
2016-11-11T13:15:45.851Z,45.67
2016-11-11T13:16:55.180Z,46.14
2016-11-11T13:18:03.884Z,45.95
2016-11-11T13:19:12.901Z,46.24
2016-11-11T13:20:22.537Z,46.26
2016-11-11T13:21:31.551Z,45.86
2016-11-11T13:22:40.887Z,45.57
2016-11-11T13:23:50.200Z,45.68
2016-11-11T13:24:59.241Z,45.3
2016-11-11T13:26:07.953Z,45.88
2016-11-11T13:27:17.275Z,45.98
2016-11-11T13:28:26.934Z,45.86
2016-11-11T13:29:35.977Z,45.76
2016-11-11T13:30:45.001Z,45.67
2016-11-11T13:31:53.710Z,45.88
2016-11-11T13:33:02.736Z,45.95
2016-11-11T13:34:11.764Z,46.34
2016-11-11T13:35:20.781Z,45.86
2016-11-11T13:36:29.785Z,45.86
2016-11-11T13:37:39.111Z,46.05
2016-11-11T13:38:48.150Z,45.67
2016-11-11T13:39:57.766Z,45.47
2016-11-11T13:41:07.391Z,45.37
2016-11-11T13:42:16.409Z,46.05
2016-11-11T13:43:25.438Z,46.14
2016-11-11T13:44:35.083Z,45.95
2016-11-11T13:45:43.929Z,45.76
2016-11-11T13:46:53.251Z,45.57
2016-11-11T13:48:01.981Z,45.67
2016-11-11T13:49:10.691Z,45.76
2016-11-11T13:50:19.699Z,45.67
2016-11-11T13:51:28.723Z,45.86
2016-11-11T13:52:37.730Z,45.47
2016-11-11T13:53:47.042Z,45.67
2016-11-11T13:54:56.377Z,46.05
2016-11-11T13:56:05.108Z,45.67
2016-11-11T13:57:14.474Z,45.76
2016-11-11T13:58:23.189Z,45.37
2016-11-11T13:59:32.191Z,45.86
2016-11-11T14:00:41.200Z,45.47
2016-11-11T14:01:50.214Z,45.86
2016-11-11T14:02:59.614Z,46.05
2016-11-11T14:04:08.642Z,45.67
2016-11-11T14:05:18.585Z,45.86
2016-11-11T14:06:27.582Z,45.95
2016-11-11T14:07:36.899Z,45.47
2016-11-11T14:08:46.331Z,45.76
2016-11-11T14:09:55.416Z,46.14
2016-11-11T14:11:04.106Z,45.86
2016-11-11T14:12:13.452Z,45.76
2016-11-11T14:13:22.458Z,45.67
2016-11-11T14:14:32.081Z,45.37
2016-11-11T14:15:41.284Z,45.67
2016-11-11T14:16:49.997Z,45.28
2016-11-11T14:17:59.009Z,45.47
2016-11-11T14:19:08.324Z,45.76
2016-11-11T14:20:17.629Z,46.14
2016-11-11T14:21:27.263Z,45.95
2016-11-11T14:22:36.303Z,45.37
2016-11-11T14:23:45.641Z,45.67
2016-11-11T14:24:54.961Z,45.86
2016-11-11T14:26:03.966Z,45.67
2016-11-11T14:27:13.271Z,45.76
2016-11-11T14:28:22.306Z,45.67
2016-11-11T14:29:31.315Z,45.57
2016-11-11T14:30:40.933Z,45.47
2016-11-11T14:31:50.585Z,45.47
2016-11-11T14:32:59.624Z,45.95
2016-11-11T14:34:08.639Z,45.76
2016-11-11T14:35:17.349Z,45.76
2016-11-11T14:36:26.368Z,45.76
2016-11-11T14:37:35.063Z,45.76
2016-11-11T14:38:44.063Z,45.67
2016-11-11T14:39:53.417Z,45.86
2016-11-11T14:41:02.441Z,45.76
2016-11-11T14:42:11.472Z,45.57
2016-11-11T14:43:20.891Z,45.57
2016-11-11T14:44:30.522Z,45.67
2016-11-11T14:45:39.526Z,45.76
2016-11-11T14:46:48.247Z,45.57
2016-11-11T14:47:57.630Z,45.47
2016-11-11T14:49:06.962Z,45.57
2016-11-11T14:50:15.965Z,45.18
2016-11-11T14:51:24.965Z,45.76
2016-11-11T14:52:34.263Z,45.18
2016-11-11T14:53:42.978Z,45.28
2016-11-11T14:57:24.954Z,45.37
2016-11-11T14:58:33.669Z,45.18
2016-11-11T14:59:42.360Z,45.28
2016-11-11T15:00:51.364Z,45.37
2016-11-11T15:02:00.405Z,45.76
2016-11-11T15:03:09.744Z,45.37
2016-11-11T15:04:19.059Z,45.76